Time;durP1;ratioP1;P1;durP2;ratioP2;P2;SDS_P1;SDS_P2;PMS_P1;PMS_P2;Temp;Humidity;BMP_temperature;BMP_pressure;BME280_temperature;BME280_humidity;BME280_pressure;Samples;Min_cycle;Max_cycle;Signal;HPM_P1;HPM_P2
2022/10/16 00:00:32;;;;;;;4.10;1.40;;;;;;;15.43;100.00;97980.66;5016469;28;20230;-71
2022/10/16 00:02:59;;;;;;;1.90;1.40;;;;;;;15.47;100.00;97977.22;5016411;28;20207;-71
2022/10/16 00:05:25;;;;;;;5.03;1.40;;;;;;;15.48;100.00;97970.00;5016293;28;20206;-71
2022/10/16 00:07:52;;;;;;;2.63;1.40;;;;;;;15.47;100.00;97969.19;5016379;28;20210;-71
2022/10/16 00:10:18;;;;;;;2.07;1.40;;;;;;;15.46;100.00;97966.75;5016706;28;20230;-71
2022/10/16 00:12:45;;;;;;;3.10;1.50;;;;;;;15.46;100.00;97964.88;5016180;28;20206;-71
2022/10/16 00:15:12;;;;;;;1.70;1.30;;;;;;;15.47;100.00;97969.19;5016004;28;20228;-71
2022/10/16 00:17:38;;;;;;;3.57;1.30;;;;;;;15.44;100.00;97966.19;5016211;28;20580;-71
2022/10/16 00:20:05;;;;;;;3.10;1.53;;;;;;;15.38;100.00;97969.91;5016137;28;20230;-71
2022/10/16 00:22:31;;;;;;;2.23;1.20;;;;;;;15.34;100.00;97963.41;5016078;28;20251;-71
2022/10/16 00:24:58;;;;;;;4.90;1.50;;;;;;;15.31;100.00;97964.69;5015010;28;20223;-71
2022/10/16 00:27:24;;;;;;;2.90;1.27;;;;;;;15.22;100.00;97960.03;5015585;28;20214;-71
2022/10/16 00:29:51;;;;;;;3.07;1.70;;;;;;;15.22;100.00;97963.53;5015534;28;20226;-71
2022/10/16 00:32:19;;;;;;;2.03;1.60;;;;;;;15.17;100.00;97966.16;5015635;28;20214;-71
2022/10/16 00:34:46;;;;;;;3.87;1.60;;;;;;;15.07;100.00;97970.56;5015861;28;20210;-71
2022/10/16 00:37:13;;;;;;;1.30;1.17;;;;;;;15.03;100.00;97978.28;5015900;28;20210;-71
2022/10/16 00:39:40;;;;;;;4.13;1.67;;;;;;;14.96;100.00;97969.63;5015445;28;20206;-71
2022/10/16 00:42:06;;;;;;;5.07;1.70;;;;;;;15.03;100.00;97977.47;5015725;28;20207;-71
2022/10/16 00:44:45;;;;;;;3.10;1.50;;;;;;;14.97;100.00;97984.63;5016326;28;20230;-72
2022/10/16 00:47:14;;;;;;;2.80;1.93;;;;;;;14.92;100.00;97979.22;5015692;28;20566;-72
2022/10/16 00:49:41;;;;;;;2.23;1.50;;;;;;;14.89;100.00;97981.56;5014044;28;20210;-71
2022/10/16 00:52:07;;;;;;;1.67;1.53;;;;;;;14.92;100.00;97981.88;5015614;28;20578;-72
2022/10/16 00:54:34;;;;;;;1.83;1.50;;;;;;;14.97;100.00;97976.59;5015504;28;20213;-72
2022/10/16 00:57:04;;;;;;;1.77;1.67;;;;;;;14.95;100.00;97975.22;5015925;28;20217;-72
2022/10/16 00:59:34;;;;;;;2.77;1.50;;;;;;;14.93;100.00;97967.44;5015091;28;20194;-72
2022/10/16 01:02:01;;;;;;;2.67;1.70;;;;;;;14.93;100.00;97970.09;5015908;28;20222;-72
2022/10/16 01:04:35;;;;;;;1.83;1.50;;;;;;;14.90;100.00;97973.31;5015242;28;20223;-71
2022/10/16 01:07:24;;;;;;;2.47;1.53;;;;;;;14.88;100.00;97988.00;5015395;28;20202;-72
2022/10/16 01:09:56;;;;;;;1.73;1.37;;;;;;;14.91;100.00;97988.31;5015269;28;20237;-71
2022/10/16 01:12:37;;;;;;;1.50;1.40;;;;;;;14.94;100.00;97979.78;5014869;28;20187;-71
2022/10/16 01:15:13;;;;;;;3.00;1.70;;;;;;;14.94;100.00;97987.00;5013907;28;20215;-71
2022/10/16 01:17:47;;;;;;;4.33;2.07;;;;;;;14.96;100.00;97996.38;5015632;28;20645;-72
2022/10/16 01:20:17;;;;;;;1.93;1.40;;;;;;;14.94;100.00;97998.53;5013932;28;20226;-72
2022/10/16 01:23:09;;;;;;;3.00;1.63;;;;;;;14.92;100.00;97986.44;5015093;28;20207;-72
2022/10/16 01:26:06;;;;;;;1.73;1.40;;;;;;;14.91;100.00;97990.97;5014906;28;20238;-72
2022/10/16 01:28:58;;;;;;;2.57;1.60;;;;;;;14.93;100.00;97986.16;5014942;28;20198;-72
2022/10/16 01:31:30;;;;;;;1.67;1.57;;;;;;;14.98;100.00;97986.25;5014878;28;20230;-72
2022/10/16 01:34:13;;;;;;;1.73;1.63;;;;;;;14.99;100.00;97987.06;5014875;28;20195;-72
2022/10/16 01:36:50;;;;;;;1.70;1.60;;;;;;;15.00;100.00;97984.13;5014693;28;20191;-72
2022/10/16 01:39:19;;;;;;;4.17;1.53;;;;;;;15.00;100.00;97980.63;5013594;28;20190;-72
2022/10/16 01:41:52;;;;;;;1.73;1.60;;;;;;;14.97;100.00;97987.28;5014616;28;20230;-72
2022/10/16 01:44:27;;;;;;;3.33;1.40;;;;;;;15.01;100.00;97976.91;5014585;28;20206;-72
2022/10/16 01:46:55;;;;;;;2.77;1.40;;;;;;;15.02;100.00;97973.97;5014660;28;20194;-72
2022/10/16 01:49:26;;;;;;;1.60;1.40;;;;;;;15.05;100.00;97978.03;5014614;28;20668;-72
2022/10/16 01:51:57;;;;;;;2.90;1.50;;;;;;;15.06;100.00;97983.13;5014122;28;20701;-72
2022/10/16 01:54:26;;;;;;;2.30;1.50;;;;;;;15.09;100.00;97977.28;5014464;28;20190;-72
2022/10/16 01:56:54;;;;;;;3.77;1.53;;;;;;;15.09;100.00;97977.28;5013264;28;20206;-72
2022/10/16 01:59:24;;;;;;;1.70;1.37;;;;;;;15.08;100.00;97977.53;5014398;28;20214;-72
2022/10/16 02:01:56;;;;;;;3.13;1.23;;;;;;;15.07;100.00;97975.91;5014266;28;20233;-72
2022/10/16 02:04:28;;;;;;;2.03;1.40;;;;;;;15.02;100.00;97967.81;5013837;28;20238;-72
2022/10/16 02:06:55;;;;;;;2.43;1.30;;;;;;;15.03;100.00;97966.75;5014819;28;20201;-71
2022/10/16 02:09:22;;;;;;;2.03;1.43;;;;;;;15.03;100.00;97967.59;5014076;28;20210;-72
2022/10/16 02:11:50;;;;;;;2.20;1.70;;;;;;;15.05;100.00;97968.13;5014105;28;20222;-72
2022/10/16 02:14:16;;;;;;;2.97;1.60;;;;;;;15.07;100.00;97968.69;5013840;28;20226;-72
2022/10/16 02:16:47;;;;;;;3.17;1.47;;;;;;;15.09;100.00;97971.09;5013575;28;20220;-72
2022/10/16 02:19:15;;;;;;;3.70;1.50;;;;;;;15.12;100.00;97974.13;5014066;28;20297;-72
2022/10/16 02:21:47;;;;;;;2.70;1.60;;;;;;;15.09;100.00;97969.25;5013709;28;20285;-71
2022/10/16 02:24:31;;;;;;;2.10;1.40;;;;;;;15.08;100.00;97970.31;5013859;28;20237;-72
2022/10/16 02:27:20;;;;;;;2.50;1.30;;;;;;;15.07;100.00;97979.38;5012857;28;20191;-72
2022/10/16 02:29:52;;;;;;;4.23;1.60;;;;;;;15.09;100.00;97977.28;5012767;28;20191;-72
2022/10/16 02:32:23;;;;;;;1.37;1.20;;;;;;;15.15;100.00;97965.56;5012495;28;20195;-72
2022/10/16 02:34:51;;;;;;;4.47;1.90;;;;;;;15.12;100.00;97971.44;5012438;28;20635;-72
2022/10/16 02:37:19;;;;;;;2.87;1.50;;;;;;;15.14;100.00;97966.63;5013847;28;20203;-72
2022/10/16 02:39:45;;;;;;;1.83;1.40;;;;;;;15.15;100.00;97972.81;5013760;28;20210;-72
2022/10/16 02:42:13;;;;;;;3.97;1.90;;;;;;;15.14;100.00;97972.00;5013457;28;20210;-72
2022/10/16 02:44:40;;;;;;;4.57;1.80;;;;;;;15.10;100.00;97984.25;5013413;28;20720;-72
2022/10/16 02:47:07;;;;;;;2.23;1.60;;;;;;;15.07;100.00;97971.34;5013328;28;20577;-72
2022/10/16 02:49:34;;;;;;;1.60;1.50;;;;;;;15.10;100.00;97975.44;5013570;28;20221;-72
2022/10/16 02:52:00;;;;;;;3.43;1.90;;;;;;;15.08;100.00;97975.69;5013696;28;20578;-72
2022/10/16 02:54:26;;;;;;;2.10;1.40;;;;;;;15.11;100.00;97977.03;5013591;28;20202;-72
2022/10/16 02:56:53;;;;;;;3.53;1.50;;;;;;;15.03;100.00;97980.97;5014083;28;20209;-72
2022/10/16 02:59:19;;;;;;;2.10;1.53;;;;;;;15.00;100.00;97986.81;5013602;28;20206;-72
2022/10/16 03:01:45;;;;;;;3.60;1.57;;;;;;;14.97;100.00;97992.66;5013473;28;20234;-71
2022/10/16 03:04:12;;;;;;;1.90;1.70;;;;;;;14.95;100.00;97994.78;5013421;28;20234;-72
2022/10/16 03:06:38;;;;;;;4.93;1.70;;;;;;;14.93;100.00;97988.84;5013183;28;20217;-72
2022/10/16 03:09:04;;;;;;;2.20;1.60;;;;;;;14.92;100.00;97989.91;5013311;28;20217;-72
2022/10/16 03:11:31;;;;;;;2.30;1.70;;;;;;;14.90;100.00;97989.38;5013126;28;20226;-72
2022/10/16 03:13:57;;;;;;;3.43;2.10;;;;;;;14.88;100.00;97991.47;5013406;28;20213;-72
2022/10/16 03:16:24;;;;;;;3.47;1.80;;;;;;;14.86;100.00;97990.09;5013053;28;20218;-72
2022/10/16 03:18:50;;;;;;;1.90;1.70;;;;;;;14.87;100.00;97995.19;5013108;28;20670;-72
2022/10/16 03:21:17;;;;;;;3.87;1.90;;;;;;;14.82;100.00;97992.47;5013222;28;20230;-72
2022/10/16 03:23:43;;;;;;;5.23;1.70;;;;;;;14.78;100.00;97996.69;5013234;28;20214;-72
2022/10/16 03:26:10;;;;;;;4.73;1.77;;;;;;;14.78;100.00;97994.00;5013054;28;20227;-71
2022/10/16 03:28:36;;;;;;;2.43;1.70;;;;;;;14.78;100.00;97985.97;5013069;28;20213;-72
2022/10/16 03:31:02;;;;;;;1.63;1.40;;;;;;;14.75;100.00;97994.50;5013256;28;20226;-72
2022/10/16 03:33:29;;;;;;;4.57;2.00;;;;;;;14.76;100.00;97998.00;5013316;28;20210;-72
2022/10/16 03:35:56;;;;;;;2.37;1.60;;;;;;;14.73;100.00;97993.13;5012940;28;20689;-72
2022/10/16 03:38:22;;;;;;;2.40;1.60;;;;;;;14.73;100.00;97987.75;5013123;28;20307;-72
2022/10/16 03:40:49;;;;;;;1.83;1.73;;;;;;;14.71;100.00;97996.06;5013041;28;20230;-72
2022/10/16 03:43:15;;;;;;;3.87;1.37;;;;;;;14.71;100.00;97992.56;5012943;28;20222;-72
2022/10/16 03:45:41;;;;;;;2.80;1.70;;;;;;;14.67;100.00;97989.59;5012781;28;20222;-71
2022/10/16 03:48:08;;;;;;;4.47;1.80;;;;;;;14.69;100.00;97995.47;5012941;28;20213;-72
2022/10/16 03:50:34;;;;;;;4.07;2.10;;;;;;;14.68;100.00;97988.53;5013043;28;20227;-71
2022/10/16 03:53:01;;;;;;;1.90;1.60;;;;;;;14.66;100.00;97993.28;5013053;28;20213;-72
2022/10/16 03:55:27;;;;;;;2.27;1.60;;;;;;;14.65;100.00;97997.03;5013948;28;20198;-72
2022/10/16 03:57:53;;;;;;;4.67;1.80;;;;;;;14.66;100.00;98000.53;5013542;28;20216;-72
2022/10/16 04:00:20;;;;;;;3.93;1.80;;;;;;;14.65;100.00;98001.59;5014604;28;20226;-72
2022/10/16 04:02:46;;;;;;;3.90;1.60;;;;;;;14.61;100.00;98001.25;5016598;28;20284;-71
2022/10/16 04:05:12;;;;;;;2.53;1.50;;;;;;;14.62;100.00;98002.06;5016416;28;20239;-72
2022/10/16 04:07:39;;;;;;;2.50;1.63;;;;;;;14.60;100.00;98004.97;5016437;28;20229;-72
2022/10/16 04:10:06;;;;;;;1.67;1.50;;;;;;;14.58;100.00;98001.75;5016901;28;20230;-72
2022/10/16 04:12:32;;;;;;;2.23;1.63;;;;;;;14.60;100.00;97996.97;5016039;28;20218;-72
2022/10/16 04:14:58;;;;;;;3.60;1.90;;;;;;;14.60;100.00;97998.84;5015855;28;20673;-72
2022/10/16 04:17:25;;;;;;;3.40;1.73;;;;;;;14.60;100.00;97994.28;5016226;28;20206;-72
2022/10/16 04:19:51;;;;;;;3.33;1.90;;;;;;;14.64;100.00;97994.59;5016095;28;20321;-72
2022/10/16 04:22:18;;;;;;;2.53;1.73;;;;;;;14.67;100.00;98000.28;5015822;28;20203;-72
2022/10/16 04:24:44;;;;;;;4.07;1.80;;;;;;;14.68;100.00;97993.88;5016055;28;20226;-71
2022/10/16 04:27:11;;;;;;;3.43;1.67;;;;;;;14.66;100.00;97997.84;5016153;28;20207;-71
2022/10/16 04:29:37;;;;;;;3.87;1.77;;;;;;;14.72;100.00;98004.88;5015659;28;20670;-71
2022/10/16 04:32:04;;;;;;;3.70;1.80;;;;;;;14.72;100.00;97995.00;5015746;28;20686;-72
2022/10/16 04:34:30;;;;;;;2.57;1.80;;;;;;;14.69;100.00;97997.34;5015900;28;20202;-72
2022/10/16 04:36:56;;;;;;;3.40;1.60;;;;;;;14.66;100.00;98003.19;5015785;28;20210;-72
2022/10/16 04:39:23;;;;;;;3.00;1.77;;;;;;;14.71;100.00;98006.78;5015771;28;20211;-71
2022/10/16 04:41:49;;;;;;;4.20;2.20;;;;;;;14.72;100.00;98007.56;5015558;28;20229;-71
2022/10/16 04:44:15;;;;;;;5.27;1.67;;;;;;;14.68;100.00;98009.94;5015506;28;20233;-72
2022/10/16 04:46:42;;;;;;;5.17;2.00;;;;;;;14.66;100.00;98014.69;5015682;28;20206;-72
2022/10/16 04:49:08;;;;;;;2.27;1.83;;;;;;;14.66;100.00;98017.38;5015573;28;20214;-71
2022/10/16 04:51:34;;;;;;;4.93;2.10;;;;;;;14.65;100.00;98026.47;5015426;28;20226;-72
2022/10/16 04:54:01;;;;;;;3.37;1.87;;;;;;;14.64;100.00;98024.03;5015552;28;20202;-71
2022/10/16 04:56:27;;;;;;;4.17;2.00;;;;;;;14.61;100.00;98024.53;5015544;28;20232;-72
2022/10/16 04:58:53;;;;;;;5.63;2.10;;;;;;;14.61;100.00;98033.34;5015402;28;20305;-72
2022/10/16 05:01:20;;;;;;;2.27;1.90;;;;;;;14.60;100.00;98031.75;5015320;28;20248;-72
2022/10/16 05:03:46;;;;;;;3.27;1.63;;;;;;;14.59;100.00;98029.31;5015443;28;20214;-72
2022/10/16 05:06:13;;;;;;;2.97;2.00;;;;;;;14.60;100.00;98028.28;5015344;28;20222;-72
2022/10/16 05:08:39;;;;;;;4.73;1.90;;;;;;;14.60;100.00;98036.31;5016014;28;20209;-72
2022/10/16 05:11:05;;;;;;;4.33;1.80;;;;;;;14.61;100.00;98044.06;5014424;28;20233;-72
2022/10/16 05:13:32;;;;;;;3.67;1.87;;;;;;;14.61;100.00;98035.22;5014817;28;20209;-71
2022/10/16 05:15:58;;;;;;;1.93;1.73;;;;;;;14.58;100.00;98036.53;5014774;28;20666;-72
2022/10/16 05:18:24;;;;;;;5.37;2.10;;;;;;;14.60;100.00;98029.06;5015178;28;20574;-72
2022/10/16 05:20:51;;;;;;;4.90;1.90;;;;;;;14.57;100.00;98034.91;5015019;28;20234;-72
2022/10/16 05:23:17;;;;;;;3.43;2.10;;;;;;;14.56;100.00;98033.28;5015046;28;20210;-72
2022/10/16 05:25:43;;;;;;;2.73;1.80;;;;;;;14.56;100.00;98033.28;5014660;28;20222;-72
2022/10/16 05:28:10;;;;;;;3.63;1.70;;;;;;;14.53;100.00;98031.13;5014949;28;20214;-72
2022/10/16 05:30:38;;;;;;;6.17;1.80;;;;;;;14.53;100.00;98032.97;5014814;28;20226;-72
2022/10/16 05:33:04;;;;;;;5.67;1.90;;;;;;;14.50;100.00;98028.91;5014942;28;20229;-72
2022/10/16 05:35:31;;;;;;;6.33;1.90;;;;;;;14.59;100.00;98038.16;5014786;28;20205;-72
2022/10/16 05:37:57;;;;;;;2.83;1.63;;;;;;;14.55;100.00;98031.66;5014646;28;20229;-72
2022/10/16 05:40:23;;;;;;;4.43;1.90;;;;;;;14.49;100.00;98035.31;5014610;28;20231;-72
2022/10/16 05:42:50;;;;;;;2.63;1.80;;;;;;;14.48;100.00;98040.91;5014602;28;20209;-72
2022/10/16 05:45:16;;;;;;;6.07;4.37;;;;;;;14.56;100.00;98051.22;5014527;28;20234;-72
2022/10/16 05:47:43;;;;;;;2.77;2.10;;;;;;;14.55;100.00;98053.06;5014566;28;20207;-72
2022/10/16 05:50:10;;;;;;;5.40;2.90;;;;;;;14.51;100.00;98043.91;5014426;28;20230;-71
2022/10/16 05:52:36;;;;;;;5.27;2.43;;;;;;;14.54;100.00;98047.94;5014212;28;20674;-71
2022/10/16 05:55:03;;;;;;;4.57;1.70;;;;;;;14.49;100.00;98047.88;5014464;28;20206;-72
2022/10/16 05:57:30;;;;;;;1.93;1.70;;;;;;;14.50;100.00;98050.31;5014087;28;20685;-72
2022/10/16 05:59:56;;;;;;;3.67;1.70;;;;;;;14.53;100.00;98057.88;5014013;28;20238;-72
2022/10/16 06:02:23;;;;;;;3.23;1.60;;;;;;;14.54;100.00;98067.50;5014224;28;20207;-72
2022/10/16 06:04:49;;;;;;;3.97;1.67;;;;;;;14.53;100.00;98059.72;5014285;28;20207;-72
2022/10/16 06:07:15;;;;;;;3.73;1.70;;;;;;;14.51;100.00;98072.53;5014271;28;20296;-71
2022/10/16 06:09:42;;;;;;;2.03;1.50;;;;;;;14.51;100.00;98070.66;5014213;28;20229;-72
2022/10/16 06:12:08;;;;;;;2.77;1.80;;;;;;;14.53;100.00;98073.91;5014167;28;20209;-72
2022/10/16 06:14:34;;;;;;;3.87;1.60;;;;;;;14.52;100.00;98074.16;5013772;28;20218;-72
2022/10/16 06:17:01;;;;;;;2.33;1.73;;;;;;;14.51;100.00;98073.34;5014045;28;20187;-72
2022/10/16 06:19:27;;;;;;;4.13;1.47;;;;;;;14.55;100.00;98074.47;5013813;28;20210;-72
2022/10/16 06:21:53;;;;;;;3.23;1.57;;;;;;;14.57;100.00;98080.38;5013441;28;20227;-72
2022/10/16 06:24:20;;;;;;;2.97;1.53;;;;;;;14.59;100.00;98083.63;5013642;28;20213;-72
2022/10/16 06:26:46;;;;;;;2.10;1.90;;;;;;;14.66;100.00;98081.59;5013621;28;20699;-72
2022/10/16 06:29:12;;;;;;;3.80;1.70;;;;;;;14.72;100.00;98086.00;5013648;28;20290;-72
2022/10/16 06:31:39;;;;;;;2.33;1.50;;;;;;;14.73;100.00;98086.78;5013449;28;20729;-72
2022/10/16 06:34:09;;;;;;;4.23;1.90;;;;;;;14.72;100.00;98086.00;5013864;28;20207;-72
2022/10/16 06:36:35;;;;;;;2.87;2.13;;;;;;;14.81;100.00;98087.19;5013875;28;20199;-72
2022/10/16 06:39:01;;;;;;;6.57;2.47;;;;;;;14.90;100.00;98091.09;5013809;28;20210;-72
2022/10/16 06:41:28;;;;;;;3.43;2.07;;;;;;;14.98;100.00;98085.31;5013603;28;20223;-72
2022/10/16 06:43:54;;;;;;;2.90;2.67;;;;;;;14.99;100.00;98089.59;5013548;28;20211;-72
2022/10/16 06:46:23;;;;;;;4.10;2.47;;;;;;;15.00;100.00;98088.53;5013498;28;20226;-72
2022/10/16 06:48:50;;;;;;;3.93;1.80;;;;;;;15.03;100.00;98106.81;5013663;28;20206;-71
2022/10/16 06:51:19;;;;;;;4.00;1.80;;;;;;;15.07;100.00;98107.91;5013659;28;20238;-72
2022/10/16 06:53:49;;;;;;;4.80;1.70;;;;;;;15.08;100.00;98111.41;5013653;28;20210;-72
2022/10/16 06:56:19;;;;;;;4.73;2.50;;;;;;;15.07;100.00;98113.25;5013304;28;20608;-72
2022/10/16 06:58:46;;;;;;;2.73;2.20;;;;;;;15.09;100.00;98113.84;5013600;28;20218;-71
2022/10/16 07:01:13;;;;;;;4.40;1.93;;;;;;;15.13;100.00;98111.47;5013515;28;20226;-71
2022/10/16 07:03:42;;;;;;;2.67;1.90;;;;;;;15.17;100.00;98116.13;5013449;28;20209;-71
2022/10/16 07:06:11;;;;;;;3.07;1.63;;;;;;;15.20;100.00;98122.84;5013459;28;20268;-72
2022/10/16 07:08:39;;;;;;;3.23;1.80;;;;;;;15.25;100.00;98128.25;5013530;28;20210;-72
2022/10/16 07:11:08;;;;;;;5.80;1.90;;;;;;;15.33;100.00;98133.22;5013272;28;20317;-72
2022/10/16 07:13:36;;;;;;;5.27;2.37;;;;;;;15.50;100.00;98134.00;5013428;28;20214;-72
2022/10/16 07:16:13;;;;;;;7.07;2.57;;;;;;;15.53;100.00;98145.03;5013575;28;20564;-72
2022/10/16 07:18:42;;;;;;;4.67;2.60;;;;;;;15.53;100.00;98139.69;5013447;28;20202;-72
2022/10/16 07:21:11;;;;;;;4.17;1.90;;;;;;;15.54;100.00;98137.78;5012970;28;20231;-72
2022/10/16 07:23:38;;;;;;;3.93;2.47;;;;;;;15.56;100.00;98154.47;5013267;28;20211;-72
2022/10/16 07:26:05;;;;;;;5.77;2.37;;;;;;;15.51;100.00;98163.22;5013260;28;20233;-72
2022/10/16 07:28:33;;;;;;;2.37;2.17;;;;;;;15.50;100.00;98161.59;5013238;28;20207;-72
2022/10/16 07:31:07;;;;;;;7.93;2.20;;;;;;;15.46;100.00;98163.16;5012836;28;20230;-72
2022/10/16 07:33:35;;;;;;;3.57;2.20;;;;;;;15.42;100.00;98164.69;5013503;28;20749;-72
2022/10/16 07:36:02;;;;;;;3.73;2.67;;;;;;;15.40;100.00;98179.41;5016576;28;20658;-72
2022/10/16 07:38:28;;;;;;;8.20;2.60;;;;;;;15.37;100.00;98178.03;5016476;28;20206;-72
2022/10/16 07:41:06;;;;;;;4.53;2.80;;;;;;;15.37;100.00;98161.94;5016769;28;20237;-72
2022/10/16 07:43:33;;;;;;;4.83;2.30;;;;;;;15.42;100.00;98166.59;5016488;28;20293;-72
2022/10/16 07:46:00;;;;;;;4.10;2.03;;;;;;;15.45;100.00;98166.06;5016525;28;20223;-72
2022/10/16 07:48:32;;;;;;;4.13;2.33;;;;;;;15.51;100.00;98162.44;5016311;28;20707;-72
2022/10/16 07:51:03;;;;;;;3.67;2.67;;;;;;;15.55;100.00;98174.25;5016523;28;20226;-72
2022/10/16 07:53:30;;;;;;;2.27;1.87;;;;;;;15.60;100.00;98183.16;5016531;28;20191;-72
2022/10/16 07:56:06;;;;;;;5.27;2.43;;;;;;;15.63;100.00;98180.00;5016206;28;20206;-72
2022/10/16 07:58:34;;;;;;;4.87;2.00;;;;;;;15.70;100.00;98187.88;5016852;28;20206;-71
2022/10/16 08:01:05;;;;;;;2.77;2.17;;;;;;;15.75;100.00;98185.25;5016333;28;20223;-72
2022/10/16 08:03:31;;;;;;;5.27;2.37;;;;;;;15.78;100.00;98184.78;5015926;28;20221;-72
2022/10/16 08:05:58;;;;;;;3.57;2.40;;;;;;;15.86;100.00;98193.19;5015892;28;20230;-71
2022/10/16 08:08:25;;;;;;;5.17;2.07;;;;;;;15.90;100.00;98188.13;5016240;28;20206;-72
2022/10/16 08:10:52;;;;;;;3.30;2.17;;;;;;;15.98;100.00;98188.50;5016200;28;20226;-72
2022/10/16 08:13:18;;;;;;;3.77;2.20;;;;;;;16.09;100.00;98195.59;5016028;28;20216;-72
2022/10/16 08:15:45;;;;;;;2.30;2.00;;;;;;;16.17;100.00;98192.50;5015596;28;20210;-72
2022/10/16 08:18:14;;;;;;;4.17;2.33;;;;;;;16.25;100.00;98192.06;5015952;28;20208;-72
2022/10/16 08:20:41;;;;;;;3.97;2.10;;;;;;;16.37;100.00;98190.03;5015833;28;20253;-71
2022/10/16 08:23:08;;;;;;;3.20;2.00;;;;;;;16.60;100.00;98188.97;5015594;28;20697;-72
2022/10/16 08:25:38;;;;;;;2.60;2.00;;;;;;;16.50;100.00;98194.19;5015664;28;20226;-72
2022/10/16 08:28:06;;;;;;;5.27;2.10;;;;;;;16.55;100.00;98195.06;5015605;28;20203;-72
2022/10/16 08:30:32;;;;;;;2.60;2.23;;;;;;;16.67;100.00;98200.28;5016173;28;20281;-72
2022/10/16 08:32:59;;;;;;;3.43;1.90;;;;;;;16.81;100.00;98222.97;5015830;28;20207;-72
2022/10/16 08:35:25;;;;;;;3.60;1.80;;;;;;;17.02;100.00;98222.09;5015362;28;20674;-72
2022/10/16 08:37:51;;;;;;;4.20;1.70;;;;;;;17.34;100.00;98215.66;5015354;28;20202;-72
2022/10/16 08:40:28;;;;;;;2.37;1.53;;;;;;;17.42;100.00;98220.56;5015377;28;20245;-72
2022/10/16 08:43:13;;;;;;;3.50;1.57;;;;;;;17.41;100.00;98229.69;5015104;28;20194;-72
2022/10/16 08:45:49;;;;;;;4.07;1.90;;;;;;;17.42;100.00;98225.94;5014290;28;20255;-72
2022/10/16 08:48:22;;;;;;;2.20;1.83;;;;;;;17.29;100.00;98225.53;5013972;28;20642;-72
2022/10/16 08:50:51;;;;;;;1.80;1.70;;;;;;;17.31;100.00;98226.09;5015068;28;20636;-72
2022/10/16 08:53:48;;;;;;;2.93;1.60;;;;;;;17.37;100.00;98223.19;5015444;28;20210;-72
2022/10/16 08:56:15;;;;;;;2.93;1.47;;;;;;;17.50;100.00;98224.66;5014035;28;20214;-72
2022/10/16 08:58:41;;;;;;;1.97;1.47;;;;;;;17.59;100.00;98217.69;5015287;28;20214;-72
2022/10/16 09:01:18;;;;;;;2.77;1.60;;;;;;;17.62;100.00;98223.41;5015089;28;20230;-72
2022/10/16 09:04:19;;;;;;;1.83;1.43;;;;;;;17.71;100.00;98223.72;5015233;28;20194;-72
2022/10/16 09:06:54;;;;;;;3.67;1.70;;;;;;;17.75;100.00;98224.81;5014000;28;20211;-72
2022/10/16 09:09:47;;;;;;;1.90;1.50;;;;;;;17.91;100.00;98223.84;5015127;28;20195;-72
2022/10/16 09:12:22;;;;;;;2.93;1.30;;;;;;;17.87;100.00;98223.53;5014640;28;20187;-72
2022/10/16 09:15:24;;;;;;;1.50;1.40;;;;;;;17.88;100.00;98232.41;5014310;28;20218;-72
2022/10/16 09:18:02;;;;;;;3.20;1.50;;;;;;;17.87;100.00;98218.16;5015563;28;20202;-72
2022/10/16 09:20:34;;;;;;;3.40;1.43;;;;;;;18.05;100.00;98215.00;5014849;28;20264;-72
2022/10/16 09:23:27;;;;;;;2.07;1.70;;;;;;;18.00;100.00;98235.72;5014015;28;20553;-72
2022/10/16 09:25:56;;;;;;;1.60;1.50;;;;;;;18.20;100.00;98239.31;5011826;28;20723;-72
2022/10/16 09:28:23;;;;;;;3.20;1.43;;;;;;;18.15;100.00;98244.63;5013151;28;20207;-72
2022/10/16 09:30:50;;;;;;;4.47;1.40;;;;;;;18.21;100.00;98251.69;5014171;28;20230;-72
2022/10/16 09:33:20;;;;;;;1.87;1.60;;;;;;;18.16;100.00;98254.34;5014480;28;20208;-72
2022/10/16 09:35:50;;;;;;;4.43;1.83;;;;;;;18.27;100.00;98256.00;5013334;28;20202;-72
2022/10/16 09:38:31;;;;;;;2.97;1.53;;;;;;;18.22;100.00;98249.78;5014557;28;20191;-72
2022/10/16 09:41:00;;;;;;;2.23;1.70;;;;;;;18.08;100.00;98257.53;5014465;28;20227;-72
2022/10/16 09:43:56;;;;;;;4.53;1.60;;;;;;;18.15;98.64;98258.09;5014070;28;20218;-72
2022/10/16 09:46:26;;;;;;;3.47;1.20;;;;;;;18.12;100.00;98253.25;5014140;28;20223;-72
2022/10/16 09:48:55;;;;;;;5.80;1.63;;;;;;;18.12;100.00;98255.94;5014159;28;20234;-72
2022/10/16 09:51:26;;;;;;;3.13;1.30;;;;;;;18.16;98.52;98251.66;5014192;28;20233;-72
2022/10/16 09:54:01;;;;;;;3.70;1.40;;;;;;;18.26;96.80;98261.66;5014103;28;20297;-72
2022/10/16 09:56:29;;;;;;;2.10;1.30;;;;;;;18.53;95.41;98257.75;5014058;28;20206;-72
2022/10/16 09:58:58;;;;;;;2.93;1.60;;;;;;;18.74;95.84;98264.81;5014130;28;20210;-72
2022/10/16 10:01:32;;;;;;;3.67;1.60;;;;;;;18.85;98.02;98265.63;5013490;28;20710;-72
2022/10/16 10:04:02;;;;;;;2.47;1.63;;;;;;;18.87;96.25;98274.28;5013796;28;20415;-72
2022/10/16 10:06:47;;;;;;;4.47;1.93;;;;;;;18.95;97.03;98268.38;5013753;28;20398;-72
2022/10/16 10:09:18;;;;;;;3.73;2.07;;;;;;;18.78;99.29;98271.28;5013341;28;20688;-72
2022/10/16 10:11:53;;;;;;;2.30;1.93;;;;;;;18.76;100.00;98281.53;5013821;28;20230;-72
2022/10/16 10:14:26;;;;;;;2.80;1.60;;;;;;;18.92;99.36;98285.06;5013354;28;20210;-72
2022/10/16 10:17:02;;;;;;;2.27;1.60;;;;;;;18.95;98.41;98288.03;5013821;28;20209;-72
2022/10/16 10:19:28;;;;;;;2.30;1.40;;;;;;;19.15;98.28;98279.16;5013955;28;20190;-72
2022/10/16 10:21:55;;;;;;;4.73;1.70;;;;;;;19.14;95.45;98281.03;5013666;28;20278;-72
2022/10/16 10:24:21;;;;;;;1.77;1.40;;;;;;;19.17;91.86;98283.22;5014351;28;20210;-72
2022/10/16 10:27:27;;;;;;;4.70;3.00;;;;;;;19.02;93.93;98283.22;5013347;28;20333;-72
2022/10/16 10:30:35;;;;;;;4.77;2.90;;;;;;;19.15;94.11;98281.88;4991773;28;20254;-72
2022/10/16 10:33:20;;;;;;;7.33;6.60;;;;;;;19.20;94.24;98277.31;5001744;28;20206;-72
2022/10/16 10:35:58;;;;;;;4.90;3.27;;;;;;;19.34;91.27;98286.50;5013488;28;20252;-72
2022/10/16 10:38:50;;;;;;;2.10;1.60;;;;;;;19.63;89.51;98276.78;5013225;28;20653;-72
2022/10/16 10:41:33;;;;;;;2.67;1.93;;;;;;;19.81;87.26;98285.41;5012478;28;20277;-72
2022/10/16 10:44:06;;;;;;;18.37;13.80;;;;;;;19.75;87.70;98278.41;5013320;28;20211;-72
2022/10/16 10:46:42;;;;;;;5.20;2.33;;;;;;;19.82;89.12;98289.69;5013916;28;20238;-71
2022/10/16 10:49:17;;;;;;;5.80;5.20;;;;;;;19.78;84.87;98284.84;5013491;28;20190;-71
2022/10/16 10:51:49;;;;;;;13.77;12.17;;;;;;;19.89;85.28;98284.84;5013467;28;20229;-71
2022/10/16 10:54:19;;;;;;;3.77;1.50;;;;;;;19.91;80.50;98290.78;5013536;28;20190;-71
2022/10/16 10:56:58;;;;;;;8.93;7.57;;;;;;;19.91;81.99;98282.69;5013208;28;20213;-71
2022/10/16 10:59:46;;;;;;;10.60;8.87;;;;;;;19.86;81.98;98290.78;5013357;28;20194;-71
2022/10/16 11:02:38;;;;;;;3.50;3.20;;;;;;;19.85;83.47;98289.97;5013098;28;20190;-71
2022/10/16 11:05:35;;;;;;;2.23;1.77;;;;;;;19.78;84.29;98284.06;5012000;28;20191;-71
2022/10/16 11:08:18;;;;;;;1.40;1.30;;;;;;;20.10;82.43;98279.16;5013133;28;20255;-71
2022/10/16 11:10:53;;;;;;;4.47;1.37;;;;;;;20.01;82.18;98282.66;5016895;28;20805;-71
2022/10/16 11:13:50;;;;;;;2.17;1.80;;;;;;;20.16;80.39;98277.25;5017189;28;20573;-71
2022/10/16 11:16:45;;;;;;;5.17;1.30;;;;;;;20.33;80.47;98280.41;5016802;28;20206;-71
2022/10/16 11:20:06;;;;;;;6.00;5.30;;;;;;;20.16;79.65;98275.34;5015734;28;20198;-71
2022/10/16 11:22:40;;;;;;;2.60;1.50;;;;;;;20.25;75.40;98275.63;4995808;28;20199;-71
2022/10/16 11:25:26;;;;;;;1.77;1.40;;;;;;;20.44;73.97;98272.00;5013470;28;20217;-71
2022/10/16 11:27:57;;;;;;;3.47;2.77;;;;;;;20.39;77.58;98276.63;5016650;28;20222;-71
2022/10/16 11:30:29;;;;;;;10.23;8.47;;;;;;;20.36;80.46;98274.47;5015250;28;20701;-71
2022/10/16 11:33:06;;;;;;;3.10;2.00;;;;;;;20.26;82.13;98271.81;5016719;28;20557;-71
2022/10/16 11:35:48;;;;;;;2.70;1.63;;;;;;;20.23;79.36;98273.19;5015670;28;20190;-71
2022/10/16 11:38:40;;;;;;;6.93;3.53;;;;;;;20.17;84.19;98270.78;5016479;28;20194;-71
2022/10/16 11:41:17;;;;;;;3.90;2.20;;;;;;;20.20;78.72;98264.81;5016650;28;20574;-71
2022/10/16 11:43:51;;;;;;;20.57;18.53;;;;;;;20.30;79.88;98268.28;5015023;28;20195;-71